Kithnos — 9HA3627 — position and weather

sailwx.info

Track history (hours):
 
Tides and Currents Weather Stations Pressure Air Temp Water Temp Dewpoint Dewpoint Depression Visibility Wind Speed Wind Dir Waves Ship Positions

Kithnos

Last reported at 2018-Aug-18 12:01 UTC. Time now 2018-Aug-21 03:56 UTC.
Position N 37°46' E 023°39'.

Length 91 m; draft 6 m.

Type: Tanker. MMSI: 229807000.

Date/timePositionNaut miles runAvg speedWind from/ knotsBaromVisibWave heightAir tempDewpointWater temp
2018-Aug-18 12:01N 37°46' E 023°39'011.1
2018-Aug-18 12:00N 37°46' E 023°39'510.6
2018-Aug-18 11:30N 37°51' E 023°36'510.7
2018-Aug-18 11:00N 37°56' E 023°36'4 8.0
2018-Aug-18 10:30N 37°59' E 023°33'3 4.8
2018-Aug-18 09:55N 38°01' E 023°32'0 0.0
2018-Aug-18 09:28N 38°01' E 023°32'0 0.0
2018-Aug-18 08:52N 38°01' E 023°32'0 0.0
2018-Aug-18 08:22N 38°01' E 023°32'0 0.0
2018-Aug-18 07:58N 38°01' E 023°32'0 0.0
2018-Aug-18 07:28N 38°01' E 023°32'0 0.0
2018-Aug-18 06:58N 38°01' E 023°32'0 0.0
2018-Aug-18 06:28N 38°01' E 023°32'0 0.0
2018-Aug-18 05:58N 38°01' E 023°32'0 0.0
2018-Aug-18 05:25N 38°01' E 023°32'0 0.1
2018-Aug-18 04:58N 38°02' E 023°32'0 0.0
2018-Aug-18 04:28N 38°01' E 023°32'0 0.0
2018-Aug-18 03:10N 38°02' E 023°32'0 0.0
2018-Aug-18 02:55N 38°02' E 023°32'0 0.0
2018-Aug-18 02:28N 38°02' E 023°32'0 0.0
2018-Aug-18 01:58N 38°02' E 023°32'0 0.0
2018-Aug-18 01:25N 38°02' E 023°32'0 0.0
2018-Aug-18 00:58N 38°02' E 023°32'0 0.0
2018-Aug-18 00:28N 38°02' E 023°32'0 0.1
2018-Aug-17 23:58N 38°02' E 023°32'0 0.0
2018-Aug-17 23:28N 38°02' E 023°32'0 0.0
2018-Aug-17 22:58N 38°02' E 023°32'0 0.0
2018-Aug-17 22:28N 38°02' E 023°32'0 0.0
2018-Aug-17 21:58N 38°02' E 023°32'0 0.0
2018-Aug-17 21:28N 38°02' E 023°32'0 0.0
2018-Aug-17 20:58N 38°02' E 023°32'0 0.0
2018-Aug-17 20:28N 38°02' E 023°32'0 0.1
2018-Aug-17 19:37N 38°02' E 023°32'0 0.0
2018-Aug-17 19:28N 38°02' E 023°32'0 0.0
2018-Aug-17 18:58N 38°02' E 023°32'0 0.1
2018-Aug-17 18:28N 38°02' E 023°32'1 2.2
2018-Aug-17 18:00N 38°02' E 023°31'0 0.3
2018-Aug-17 17:29N 38°02' E 023°31'0 0.0
2018-Aug-17 17:00N 38°02' E 023°31'0 0.0
2018-Aug-17 16:30N 38°02' E 023°31'0 0.0
2018-Aug-17 16:00N 38°02' E 023°31'0 0.0
2018-Aug-17 15:30N 38°02' E 023°31'0 0.0
2018-Aug-17 15:00N 38°02' E 023°31'0 0.0
2018-Aug-17 14:30N 38°02' E 023°31'0 0.0
2018-Aug-17 13:30N 38°02' E 023°31'0 0.0
2018-Aug-17 13:00N 38°02' E 023°31'0 0.0
2018-Aug-17 12:30N 38°02' E 023°31'0 0.0
2018-Aug-17 12:01N 38°02' E 023°31'0 0.0
2018-Aug-17 11:30N 38°02' E 023°31'0 0.0
2018-Aug-17 11:00N 38°02' E 023°31'0 0.0
2018-Aug-17 10:30N 38°02' E 023°31'0 0.0
2018-Aug-17 10:00N 38°02' E 023°31'0 0.0
2018-Aug-17 09:30N 38°02' E 023°31'0 0.0
2018-Aug-17 09:00N 38°02' E 023°31'0 0.0
2018-Aug-17 08:30N 38°02' E 023°31'0 0.0
2018-Aug-17 08:00N 38°02' E 023°31'0 0.0
2018-Aug-17 07:30N 38°02' E 023°31'0 0.0
2018-Aug-17 07:00N 38°02' E 023°31'0 0.0
2018-Aug-17 06:30N 38°02' E 023°31'0 0.0
2018-Aug-17 06:00N 38°02' E 023°31'0 0.0
2018-Aug-17 05:30N 38°02' E 023°31'1 1.1
2018-Aug-17 05:00N 38°02' E 023°31'2 4.8
2018-Aug-17 04:31N 37°60' E 023°33'4 8.7
2018-Aug-17 04:00N 37°56' E 023°35'1 1.8
2018-Aug-17 03:30N 37°55' E 023°35'3 6.8
2018-Aug-17 03:00N 37°52' E 023°38'5 9.8
2018-Aug-17 02:30N 37°48' E 023°41'  
2018-Aug-13 18:34N 37°44' E 023°40'210.6
2018-Aug-13 18:25N 37°45' E 023°39'410.6
2018-Aug-13 18:01N 37°49' E 023°36'510.6
2018-Aug-13 17:31N 37°55' E 023°36'4 8.6
2018-Aug-13 17:01N 37°58' E 023°33'3 6.7
2018-Aug-13 16:30N 38°01' E 023°33'0 0.1
2018-Aug-13 08:33N 38°02' E 023°33'0 0.1
2018-Aug-13 08:24N 38°02' E 023°33'1 2.0
2018-Aug-13 07:56N 38°01' E 023°32'0 0.2
2018-Aug-13 07:29N 38°01' E 023°32'0 0.0
2018-Aug-13 06:59N 38°01' E 023°32'0 0.0
2018-Aug-13 06:29N 38°01' E 023°32'0 0.0
2018-Aug-13 05:59N 38°01' E 023°32'0 0.0
2018-Aug-13 05:26N 38°01' E 023°32'0 0.0
2018-Aug-13 04:59N 38°01' E 023°32'0 0.0
2018-Aug-13 04:26N 38°01' E 023°32'0 0.0
2018-Aug-13 03:59N 38°01' E 023°32'0 0.0
2018-Aug-13 03:29N 38°01' E 023°32'0 0.0
2018-Aug-13 02:56N 38°01' E 023°32'0 0.0
2018-Aug-13 02:29N 38°01' E 023°32'0 0.0
2018-Aug-13 01:59N 38°01' E 023°32'0 0.0
2018-Aug-13 01:20N 38°01' E 023°32'0 0.0
2018-Aug-13 00:59N 38°01' E 023°32'0 0.0
2018-Aug-13 00:29N 38°01' E 023°32'0 0.0
2018-Aug-12 23:59N 38°01' E 023°32'0 0.0
2018-Aug-12 23:29N 38°01' E 023°32'0 0.0
2018-Aug-12 22:59N 38°01' E 023°32'0 0.0
2018-Aug-12 22:29N 38°01' E 023°32'0 0.0
2018-Aug-12 21:59N 38°01' E 023°32'0 0.0
2018-Aug-12 21:29N 38°01' E 023°32'0 0.0
2018-Aug-12 20:59N 38°01' E 023°32'0 0.0
2018-Aug-12 20:26N 38°01' E 023°32'0 0.0
2018-Aug-12 19:59N 38°01' E 023°32'0 0.0
2018-Aug-12 19:29N 38°01' E 023°32'0 0.0
2018-Aug-12 18:59N 38°01' E 023°32'0 0.0
2018-Aug-12 18:29N 38°01' E 023°32'0 0.0
2018-Aug-12 17:59N 38°01' E 023°32'0 0.0
2018-Aug-12 17:29N 38°01' E 023°32'0 0.0
2018-Aug-12 16:59N 38°01' E 023°32'0 0.0
2018-Aug-12 16:26N 38°01' E 023°32'0 0.0
2018-Aug-12 15:59N 38°01' E 023°32'0 0.0
2018-Aug-12 15:29N 38°01' E 023°32'0 0.0
2018-Aug-12 14:59N 38°01' E 023°32'0 0.0
2018-Aug-12 14:29N 38°01' E 023°32'0 0.0
2018-Aug-12 13:59N 38°01' E 023°32'0 0.0
2018-Aug-12 13:29N 38°01' E 023°32'0 0.0
2018-Aug-12 12:56N 38°01' E 023°32'0 0.1
2018-Aug-12 12:29N 38°01' E 023°32'0 0.0
2018-Aug-12 11:56N 38°01' E 023°32'0 0.1
2018-Aug-12 11:29N 38°01' E 023°31'1 0.1
2018-Aug-12 00:15N 38°02' E 023°31'0 0.7
2018-Aug-12 00:00N 38°02' E 023°30'1 1.8
2018-Aug-11 23:30N 38°01' E 023°31'0 0.1
2018-Aug-11 23:00N 38°01' E 023°31'0 0.1
2018-Aug-11 22:30N 38°01' E 023°31'0 0.0
2018-Aug-11 22:00N 38°01' E 023°31'0 0.0
2018-Aug-11 21:30N 38°01' E 023°31'0 0.0
2018-Aug-11 21:00N 38°01' E 023°31'0 0.0
2018-Aug-11 20:30N 38°01' E 023°31'0 0.0
2018-Aug-11 20:00N 38°01' E 023°31'0 0.0
2018-Aug-11 19:30N 38°01' E 023°31'0 0.0
2018-Aug-11 19:00N 38°01' E 023°31'0 0.0
2018-Aug-11 18:30N 38°01' E 023°31'0 0.0
2018-Aug-11 18:00N 38°01' E 023°31'0 0.0
2018-Aug-11 17:30N 38°01' E 023°31'0 0.0
2018-Aug-11 17:00N 38°01' E 023°31'0 0.0
2018-Aug-11 16:30N 38°01' E 023°31'0 0.0
2018-Aug-11 16:00N 38°01' E 023°31'0 0.0
2018-Aug-11 15:31N 38°01' E 023°31'0 0.0
2018-Aug-11 15:00N 38°01' E 023°31'0 0.0
2018-Aug-11 14:30N 38°01' E 023°31'0 0.0
2018-Aug-11 14:00N 38°01' E 023°31'0 0.5
2018-Aug-11 13:31N 38°01' E 023°32'4 8.4
2018-Aug-11 13:01N 37°57' E 023°34'3 6.9
2018-Aug-11 12:30N 37°55' E 023°36'4 8.2
2018-Aug-11 12:00N 37°51' E 023°39'  
Track history (hours):
 
Tides and Currents Weather Stations Pressure Air Temp Water Temp Dewpoint Dewpoint Depression Visibility Wind Speed Wind Dir Waves Ship Positions

Kithnos

Last reported at 2018-Aug-18 12:01 UTC. Time now 2018-Aug-21 03:56 UTC.
Position N 37°46' E 023°39'.

Length 91 m; draft 6 m.

Type: Tanker. MMSI: 229807000.

Date/timePositionNaut miles runAvg speedWind from/ knotsBaromVisibWave heightAir tempDewpointWater temp
2018-Aug-18 12:01N 37°46' E 023°39'011.1
2018-Aug-18 12:00N 37°46' E 023°39'510.6
2018-Aug-18 11:30N 37°51' E 023°36'510.7
2018-Aug-18 11:00N 37°56' E 023°36'4 8.0
2018-Aug-18 10:30N 37°59' E 023°33'3 4.8
2018-Aug-18 09:55N 38°01' E 023°32'0 0.0
2018-Aug-18 09:28N 38°01' E 023°32'0 0.0
2018-Aug-18 08:52N 38°01' E 023°32'0 0.0
2018-Aug-18 08:22N 38°01' E 023°32'0 0.0
2018-Aug-18 07:58N 38°01' E 023°32'0 0.0
2018-Aug-18 07:28N 38°01' E 023°32'0 0.0
2018-Aug-18 06:58N 38°01' E 023°32'0 0.0
2018-Aug-18 06:28N 38°01' E 023°32'0 0.0
2018-Aug-18 05:58N 38°01' E 023°32'0 0.0
2018-Aug-18 05:25N 38°01' E 023°32'0 0.1
2018-Aug-18 04:58N 38°02' E 023°32'0 0.0
2018-Aug-18 04:28N 38°01' E 023°32'0 0.0
2018-Aug-18 03:10N 38°02' E 023°32'0 0.0
2018-Aug-18 02:55N 38°02' E 023°32'0 0.0
2018-Aug-18 02:28N 38°02' E 023°32'0 0.0
2018-Aug-18 01:58N 38°02' E 023°32'0 0.0
2018-Aug-18 01:25N 38°02' E 023°32'0 0.0
2018-Aug-18 00:58N 38°02' E 023°32'0 0.0
2018-Aug-18 00:28N 38°02' E 023°32'0 0.1
2018-Aug-17 23:58N 38°02' E 023°32'0 0.0
2018-Aug-17 23:28N 38°02' E 023°32'0 0.0
2018-Aug-17 22:58N 38°02' E 023°32'0 0.0
2018-Aug-17 22:28N 38°02' E 023°32'0 0.0
2018-Aug-17 21:58N 38°02' E 023°32'0 0.0
2018-Aug-17 21:28N 38°02' E 023°32'0 0.0
2018-Aug-17 20:58N 38°02' E 023°32'0 0.0
2018-Aug-17 20:28N 38°02' E 023°32'0 0.1
2018-Aug-17 19:37N 38°02' E 023°32'0 0.0
2018-Aug-17 19:28N 38°02' E 023°32'0 0.0
2018-Aug-17 18:58N 38°02' E 023°32'0 0.1
2018-Aug-17 18:28N 38°02' E 023°32'1 2.2
2018-Aug-17 18:00N 38°02' E 023°31'0 0.3
2018-Aug-17 17:29N 38°02' E 023°31'0 0.0
2018-Aug-17 17:00N 38°02' E 023°31'0 0.0
2018-Aug-17 16:30N 38°02' E 023°31'0 0.0
2018-Aug-17 16:00N 38°02' E 023°31'0 0.0
2018-Aug-17 15:30N 38°02' E 023°31'0 0.0
2018-Aug-17 15:00N 38°02' E 023°31'0 0.0
2018-Aug-17 14:30N 38°02' E 023°31'0 0.0
2018-Aug-17 13:30N 38°02' E 023°31'0 0.0
2018-Aug-17 13:00N 38°02' E 023°31'0 0.0
2018-Aug-17 12:30N 38°02' E 023°31'0 0.0
2018-Aug-17 12:01N 38°02' E 023°31'0 0.0
2018-Aug-17 11:30N 38°02' E 023°31'0 0.0
2018-Aug-17 11:00N 38°02' E 023°31'0 0.0
2018-Aug-17 10:30N 38°02' E 023°31'0 0.0
2018-Aug-17 10:00N 38°02' E 023°31'0 0.0
2018-Aug-17 09:30N 38°02' E 023°31'0 0.0
2018-Aug-17 09:00N 38°02' E 023°31'0 0.0
2018-Aug-17 08:30N 38°02' E 023°31'0 0.0
2018-Aug-17 08:00N 38°02' E 023°31'0 0.0
2018-Aug-17 07:30N 38°02' E 023°31'0 0.0
2018-Aug-17 07:00N 38°02' E 023°31'0 0.0
2018-Aug-17 06:30N 38°02' E 023°31'0 0.0
2018-Aug-17 06:00N 38°02' E 023°31'0 0.0
2018-Aug-17 05:30N 38°02' E 023°31'1 1.1
2018-Aug-17 05:00N 38°02' E 023°31'2 4.8
2018-Aug-17 04:31N 37°60' E 023°33'4 8.7
2018-Aug-17 04:00N 37°56' E 023°35'1 1.8
2018-Aug-17 03:30N 37°55' E 023°35'3 6.8
2018-Aug-17 03:00N 37°52' E 023°38'5 9.8
2018-Aug-17 02:30N 37°48' E 023°41'  
2018-Aug-13 18:34N 37°44' E 023°40'210.6
2018-Aug-13 18:25N 37°45' E 023°39'410.6
2018-Aug-13 18:01N 37°49' E 023°36'510.6
2018-Aug-13 17:31N 37°55' E 023°36'4 8.6
2018-Aug-13 17:01N 37°58' E 023°33'3 6.7
2018-Aug-13 16:30N 38°01' E 023°33'0 0.1
2018-Aug-13 08:33N 38°02' E 023°33'0 0.1
2018-Aug-13 08:24N 38°02' E 023°33'1 2.0
2018-Aug-13 07:56N 38°01' E 023°32'0 0.2
2018-Aug-13 07:29N 38°01' E 023°32'0 0.0
2018-Aug-13 06:59N 38°01' E 023°32'0 0.0
2018-Aug-13 06:29N 38°01' E 023°32'0 0.0
2018-Aug-13 05:59N 38°01' E 023°32'0 0.0
2018-Aug-13 05:26N 38°01' E 023°32'0 0.0
2018-Aug-13 04:59N 38°01' E 023°32'0 0.0
2018-Aug-13 04:26N 38°01' E 023°32'0 0.0
2018-Aug-13 03:59N 38°01' E 023°32'0 0.0
2018-Aug-13 03:29N 38°01' E 023°32'0 0.0
2018-Aug-13 02:56N 38°01' E 023°32'0 0.0
2018-Aug-13 02:29N 38°01' E 023°32'0 0.0
2018-Aug-13 01:59N 38°01' E 023°32'0 0.0
2018-Aug-13 01:20N 38°01' E 023°32'0 0.0
2018-Aug-13 00:59N 38°01' E 023°32'0 0.0
2018-Aug-13 00:29N 38°01' E 023°32'0 0.0
2018-Aug-12 23:59N 38°01' E 023°32'0 0.0
2018-Aug-12 23:29N 38°01' E 023°32'0 0.0
2018-Aug-12 22:59N 38°01' E 023°32'0 0.0
2018-Aug-12 22:29N 38°01' E 023°32'0 0.0
2018-Aug-12 21:59N 38°01' E 023°32'0 0.0
2018-Aug-12 21:29N 38°01' E 023°32'0 0.0
2018-Aug-12 20:59N 38°01' E 023°32'0 0.0
2018-Aug-12 20:26N 38°01' E 023°32'0 0.0
2018-Aug-12 19:59N 38°01' E 023°32'0 0.0
2018-Aug-12 19:29N 38°01' E 023°32'0 0.0
2018-Aug-12 18:59N 38°01' E 023°32'0 0.0
2018-Aug-12 18:29N 38°01' E 023°32'0 0.0
2018-Aug-12 17:59N 38°01' E 023°32'0 0.0
2018-Aug-12 17:29N 38°01' E 023°32'0 0.0
2018-Aug-12 16:59N 38°01' E 023°32'0 0.0
2018-Aug-12 16:26N 38°01' E 023°32'0 0.0
2018-Aug-12 15:59N 38°01' E 023°32'0 0.0
2018-Aug-12 15:29N 38°01' E 023°32'0 0.0
2018-Aug-12 14:59N 38°01' E 023°32'0 0.0
2018-Aug-12 14:29N 38°01' E 023°32'0 0.0
2018-Aug-12 13:59N 38°01' E 023°32'0 0.0
2018-Aug-12 13:29N 38°01' E 023°32'0 0.0
2018-Aug-12 12:56N 38°01' E 023°32'0 0.1
2018-Aug-12 12:29N 38°01' E 023°32'0 0.0
2018-Aug-12 11:56N 38°01' E 023°32'0 0.1
2018-Aug-12 11:29N 38°01' E 023°31'1 0.1
2018-Aug-12 00:15N 38°02' E 023°31'0 0.7
2018-Aug-12 00:00N 38°02' E 023°30'1 1.8
2018-Aug-11 23:30N 38°01' E 023°31'0 0.1
2018-Aug-11 23:00N 38°01' E 023°31'0 0.1
2018-Aug-11 22:30N 38°01' E 023°31'0 0.0
2018-Aug-11 22:00N 38°01' E 023°31'0 0.0
2018-Aug-11 21:30N 38°01' E 023°31'0 0.0
2018-Aug-11 21:00N 38°01' E 023°31'0 0.0
2018-Aug-11 20:30N 38°01' E 023°31'0 0.0
2018-Aug-11 20:00N 38°01' E 023°31'0 0.0
2018-Aug-11 19:30N 38°01' E 023°31'0 0.0
2018-Aug-11 19:00N 38°01' E 023°31'0 0.0
2018-Aug-11 18:30N 38°01' E 023°31'0 0.0
2018-Aug-11 18:00N 38°01' E 023°31'0 0.0
2018-Aug-11 17:30N 38°01' E 023°31'0 0.0
2018-Aug-11 17:00N 38°01' E 023°31'0 0.0
2018-Aug-11 16:30N 38°01' E 023°31'0 0.0
2018-Aug-11 16:00N 38°01' E 023°31'0 0.0
2018-Aug-11 15:31N 38°01' E 023°31'0 0.0
2018-Aug-11 15:00N 38°01' E 023°31'0 0.0
2018-Aug-11 14:30N 38°01' E 023°31'0 0.0
2018-Aug-11 14:00N 38°01' E 023°31'0 0.5
2018-Aug-11 13:31N 38°01' E 023°32'4 8.4
2018-Aug-11 13:01N 37°57' E 023°34'3 6.9
2018-Aug-11 12:30N 37°55' E 023°36'4 8.2
2018-Aug-11 12:00N 37°51' E 023°39'  

Dump ship's entire track history